Time;durP1;ratioP1;P1;durP2;ratioP2;P2;SDS_P1;SDS_P2;PMS_P1;PMS_P2;Temp;Humidity;BMP_temperature;BMP_pressure;BME280_temperature;BME280_humidity;BME280_pressure;Samples;Min_cycle;Max_cycle;Signal;HPM_P1;HPM_P2
2023/06/02 07:51:21;;;;;;;9.30;5.50;;;;;;;19.35;45.23;100792.75;6061303;23;20347;-76
2023/06/02 09:52:14;;;;;;;11.73;4.73;;;;;;;21.85;40.20;100735.59;5790561;24;20592;-71
2023/06/02 09:55:51;;;;;;;8.40;4.00;;;;;;;21.96;39.51;100750.31;5812672;24;20199;-73
2023/06/02 10:02:37;;;;;;;11.43;4.87;;;;;;;22.05;39.41;100741.75;5884618;24;20198;-72
2023/06/02 10:09:27;;;;;;;7.73;4.40;;;;;;;22.11;39.58;100740.88;5912542;24;20581;-72
2023/06/02 10:13:25;;;;;;;11.67;5.90;;;;;;;22.19;38.61;100736.25;5928301;24;20194;-72
2023/06/02 18:21:40;;;;;;;9.73;3.10;;;;;;;22.04;32.05;100548.38;5889244;24;20191;-73
2023/06/02 18:24:09;;;;;;;8.77;2.93;;;;;;;22.02;31.44;100546.94;6213356;23;20647;-63
2023/06/02 18:26:38;;;;;;;8.77;3.27;;;;;;;22.04;31.83;100548.38;6214493;23;20569;-64
2023/06/02 18:29:06;;;;;;;5.10;2.73;;;;;;;22.02;32.35;100547.78;6206568;23;20259;-65
2023/06/02 18:31:33;;;;;;;6.80;3.03;;;;;;;22.01;32.03;100554.22;6206926;23;20182;-64
2023/06/02 18:34:01;;;;;;;5.37;2.60;;;;;;;21.99;32.21;100547.38;6206932;23;20184;-64
2023/06/02 18:36:30;;;;;;;6.90;2.90;;;;;;;21.98;32.16;100545.75;6207017;23;20212;-64
2023/06/02 18:38:57;;;;;;;8.80;3.07;;;;;;;21.97;32.37;100549.47;6206809;23;20188;-64
2023/06/02 18:41:28;;;;;;;5.33;2.67;;;;;;;21.92;32.75;100547.41;6206683;23;20203;-65
2023/06/02 18:43:56;;;;;;;4.43;2.90;;;;;;;21.90;32.92;100554.91;6208235;23;20194;-66
2023/06/02 18:46:24;;;;;;;8.93;3.13;;;;;;;21.87;32.93;100555.34;6205745;23;20273;-62
2023/06/02 18:48:52;;;;;;;5.37;2.97;;;;;;;21.86;33.15;100553.69;6208044;23;20240;-65
2023/06/02 18:51:20;;;;;;;9.80;3.33;;;;;;;21.82;32.75;100555.16;6207319;23;20188;-64
2023/06/02 18:53:48;;;;;;;6.97;2.80;;;;;;;21.76;33.06;100564.97;6207131;23;20219;-64
2023/06/02 18:56:15;;;;;;;7.30;3.10;;;;;;;21.73;34.06;100564.56;6207168;23;20555;-63
2023/06/02 18:58:44;;;;;;;7.10;2.93;;;;;;;21.70;34.24;100565.88;6201236;23;20636;-65
2023/06/02 19:01:12;;;;;;;6.73;3.23;;;;;;;21.71;34.18;100577.50;6204372;23;20184;-64
2023/06/02 19:03:40;;;;;;;7.50;3.07;;;;;;;21.69;34.65;100579.56;6204583;23;20180;-65
2023/06/02 19:06:08;;;;;;;16.40;3.93;;;;;;;21.67;34.48;100578.94;6204003;23;20184;-63
2023/06/02 19:08:36;;;;;;;9.30;3.53;;;;;;;21.65;34.29;100571.06;6177616;23;20252;-64
2023/06/02 19:11:06;;;;;;;9.50;3.90;;;;;;;21.65;34.37;100578.34;6206307;23;20368;-63
2023/06/02 19:13:33;;;;;;;10.57;3.83;;;;;;;21.60;34.61;100580.88;6204775;23;20211;-65
2023/06/02 19:16:03;;;;;;;8.70;3.47;;;;;;;21.55;34.85;100586.09;6204327;23;20188;-64
2023/06/02 19:18:31;;;;;;;10.13;3.67;;;;;;;21.53;35.27;100580.09;6204316;23;20183;-64
2023/06/02 19:21:01;;;;;;;10.23;3.80;;;;;;;21.51;35.45;100584.88;6204026;23;20223;-66
2023/06/02 19:23:29;;;;;;;9.53;3.03;;;;;;;21.47;35.75;100583.63;6204100;23;20214;-66
2023/06/02 19:25:57;;;;;;;9.97;4.07;;;;;;;21.40;36.00;100584.50;6203154;23;20902;-64
2023/06/02 19:28:25;;;;;;;8.33;3.67;;;;;;;21.36;36.03;100586.00;6204812;23;20238;-64
2023/06/02 19:30:54;;;;;;;8.47;3.40;;;;;;;21.33;36.19;100591.81;6204190;23;20318;-65
2023/06/02 19:33:23;;;;;;;7.30;3.10;;;;;;;21.32;37.10;100598.25;6203528;23;20223;-69
2023/06/02 19:35:51;;;;;;;8.57;3.63;;;;;;;21.32;36.91;100600.94;6203901;23;20180;-65
2023/06/02 19:38:19;;;;;;;10.03;3.50;;;;;;;21.30;36.43;100603.03;6203553;23;20806;-66
2023/06/02 19:40:47;;;;;;;7.83;3.50;;;;;;;21.28;36.68;100599.75;6202857;23;20624;-68
2023/06/02 19:43:15;;;;;;;8.70;3.30;;;;;;;21.25;37.18;100613.66;6198085;23;20180;-66
2023/06/02 19:45:43;;;;;;;7.30;3.57;;;;;;;21.22;37.67;100611.38;6203943;23;20191;-72
2023/06/02 19:48:10;;;;;;;10.60;3.60;;;;;;;21.22;37.48;100611.38;6205557;23;20672;-66
2023/06/02 19:50:40;;;;;;;13.37;3.60;;;;;;;21.19;37.40;100613.69;6204434;23;20215;-67
2023/06/02 19:53:08;;;;;;;8.47;3.70;;;;;;;21.15;37.55;100607.84;6206137;23;20191;-67
2023/06/02 19:55:36;;;;;;;7.63;3.63;;;;;;;21.10;38.00;100617.63;6205065;23;20230;-66
2023/06/02 19:58:04;;;;;;;7.67;3.13;;;;;;;21.06;38.00;100617.22;6205376;23;20219;-65
2023/06/02 20:00:32;;;;;;;8.30;3.40;;;;;;;21.05;37.86;100612.84;6204345;23;20227;-67
2023/06/02 20:02:59;;;;;;;8.23;3.00;;;;;;;21.06;38.27;100619.91;6204890;23;20565;-65
2023/06/02 20:05:27;;;;;;;8.40;2.80;;;;;;;21.05;38.38;100618.25;6205121;23;20184;-65
2023/06/02 20:07:57;;;;;;;8.17;3.33;;;;;;;21.06;38.43;100628.00;6202227;23;20975;-65
2023/06/02 20:10:26;;;;;;;6.20;3.30;;;;;;;21.01;38.49;100633.22;6203095;23;20204;-65
2023/06/02 20:12:54;;;;;;;6.77;3.20;;;;;;;20.97;38.71;100630.09;6204278;23;20259;-65
2023/06/02 20:15:21;;;;;;;8.70;3.10;;;;;;;20.95;38.92;100631.34;6204962;23;20180;-66
2023/06/02 20:17:49;;;;;;;4.70;2.93;;;;;;;20.93;39.01;100638.84;6204461;23;20184;-66
2023/06/02 20:20:17;;;;;;;9.83;3.53;;;;;;;20.93;38.89;100644.22;6206514;23;20187;-66
2023/06/02 20:22:45;;;;;;;7.33;3.40;;;;;;;20.91;39.04;100647.13;6203978;23;20246;-65
2023/06/02 20:25:14;;;;;;;7.43;3.23;;;;;;;20.90;39.68;100656.25;6203196;23;20851;-68
2023/06/02 20:27:42;;;;;;;7.93;3.10;;;;;;;20.86;39.87;100651.47;6203639;23;20207;-66
2023/06/02 20:30:10;;;;;;;6.67;3.30;;;;;;;20.84;39.71;100656.28;6206227;23;20204;-66
2023/06/02 20:32:38;;;;;;;6.87;3.20;;;;;;;20.83;39.73;100655.44;6205528;23;20191;-67
2023/06/02 20:35:06;;;;;;;7.47;2.93;;;;;;;20.85;39.75;100668.69;6202251;23;20180;-69
2023/06/02 20:37:36;;;;;;;6.53;3.10;;;;;;;20.83;39.93;100665.38;6202829;23;20176;-66
2023/06/02 20:40:04;;;;;;;8.87;3.27;;;;;;;20.81;39.91;100659.38;6203617;23;20184;-65
2023/06/02 20:42:34;;;;;;;6.87;3.50;;;;;;;20.77;40.30;100660.81;6203041;23;20188;-67
2023/06/02 20:45:02;;;;;;;10.33;3.70;;;;;;;20.76;40.31;100659.97;6204641;23;20176;-66
2023/06/02 20:47:30;;;;;;;7.90;3.40;;;;;;;20.75;40.25;100668.31;6203274;23;20184;-66
2023/06/02 20:49:58;;;;;;;6.30;2.83;;;;;;;20.67;40.70;100655.84;6205151;23;20226;-66
2023/06/02 20:52:27;;;;;;;7.30;3.40;;;;;;;20.61;41.10;100667.47;6206135;23;20212;-65
2023/06/02 20:54:55;;;;;;;6.00;3.30;;;;;;;20.53;41.23;100668.53;6207124;23;20263;-65
2023/06/02 20:57:22;;;;;;;10.87;3.53;;;;;;;20.52;41.10;100669.56;6206034;23;20254;-65
2023/06/02 20:59:51;;;;;;;8.27;2.93;;;;;;;20.49;41.31;100674.56;6204933;23;20588;-65
2023/06/02 21:02:20;;;;;;;15.27;4.17;;;;;;;20.46;42.14;100672.25;6206028;23;20216;-67
2023/06/02 21:04:48;;;;;;;10.37;3.17;;;;;;;20.48;42.10;100668.34;6205085;23;20790;-66
2023/06/02 21:07:15;;;;;;;5.40;3.10;;;;;;;20.59;42.01;100680.31;6204482;23;20267;-66
2023/06/02 21:09:44;;;;;;;6.33;3.03;;;;;;;20.77;41.55;100671.59;6205066;23;20648;-67
2023/06/02 21:12:12;;;;;;;8.97;3.27;;;;;;;20.97;41.46;100673.22;6205280;23;20186;-62
2023/06/02 21:14:41;;;;;;;9.80;3.50;;;;;;;21.02;40.86;100676.09;6203796;23;20658;-68
2023/06/02 21:17:12;;;;;;;9.73;3.60;;;;;;;20.95;41.24;100677.16;6203374;23;20242;-67
2023/06/02 21:19:40;;;;;;;7.80;3.07;;;;;;;20.85;41.55;100682.16;6203581;23;20180;-67
2023/06/02 21:22:09;;;;;;;8.57;3.10;;;;;;;20.73;41.66;100691.94;6200508;23;20287;-67
2023/06/02 21:24:38;;;;;;;6.37;3.10;;;;;;;20.63;41.79;100687.78;6201290;23;20184;-66
2023/06/02 21:27:06;;;;;;;9.13;3.20;;;;;;;20.56;42.20;100692.38;6201646;23;20839;-68
2023/06/02 21:29:35;;;;;;;7.63;3.10;;;;;;;20.47;42.18;100693.59;6204439;23;20184;-67
2023/06/02 21:32:02;;;;;;;10.73;3.47;;;;;;;20.39;42.45;100691.13;6204467;23;20180;-67
2023/06/02 21:34:31;;;;;;;6.90;3.27;;;;;;;20.38;42.48;100696.72;6204839;23;20259;-67
2023/06/02 21:36:59;;;;;;;10.23;3.20;;;;;;;20.37;42.31;100700.44;6203604;23;20208;-66
2023/06/02 21:39:27;;;;;;;6.80;3.20;;;;;;;20.32;42.83;100706.38;6204316;23;20211;-70
2023/06/02 21:41:55;;;;;;;9.80;3.40;;;;;;;20.27;42.95;100707.03;6204703;23;20237;-67
2023/06/02 21:44:22;;;;;;;9.20;3.50;;;;;;;20.15;43.05;100707.81;6204989;23;20258;-66
2023/06/02 21:46:50;;;;;;;8.33;3.03;;;;;;;20.13;43.25;100701.84;6203062;23;20207;-66
2023/06/02 21:49:21;;;;;;;8.80;3.30;;;;;;;20.13;43.24;100707.22;6204792;23;20220;-67
2023/06/02 21:51:50;;;;;;;9.13;3.53;;;;;;;20.12;43.38;100710.94;6203479;23;20328;-67
2023/06/02 21:54:18;;;;;;;7.27;3.40;;;;;;;20.14;43.30;100715.06;6204787;23;20644;-68
2023/06/02 21:56:46;;;;;;;10.57;2.90;;;;;;;20.15;43.51;100710.50;6203249;23;20242;-67
2023/06/02 21:59:13;;;;;;;9.93;3.30;;;;;;;20.14;43.27;100719.66;6204714;23;20223;-67
2023/06/02 22:01:41;;;;;;;9.23;3.30;;;;;;;20.12;43.30;100716.31;6202313;23;20188;-67
2023/06/02 22:04:10;;;;;;;6.47;3.13;;;;;;;20.13;43.33;100715.28;6202581;23;20220;-65
2023/06/02 22:06:38;;;;;;;8.33;3.43;;;;;;;20.14;43.48;100716.97;6204338;23;20180;-69
2023/06/02 22:09:07;;;;;;;9.57;4.27;;;;;;;20.13;43.47;100715.28;6201925;23;20187;-68
2023/06/02 22:11:34;;;;;;;10.57;3.43;;;;;;;20.15;43.51;100721.28;6203500;23;20204;-66
2023/06/02 22:14:02;;;;;;;10.40;4.03;;;;;;;20.16;43.63;100722.94;6203956;23;20259;-67
2023/06/02 22:16:30;;;;;;;8.37;3.00;;;;;;;20.13;43.34;100718.00;6202179;23;20180;-67
2023/06/02 22:18:58;;;;;;;10.23;2.97;;;;;;;20.13;43.21;100720.69;6201624;23;20219;-67
2023/06/02 22:21:26;;;;;;;9.03;3.57;;;;;;;20.11;43.37;100720.06;6203001;23;20250;-68
2023/06/02 22:24:15;;;;;;;13.33;3.70;;;;;;;20.10;43.26;100721.91;6171098;23;20347;-68
2023/06/02 22:26:54;;;;;;;10.23;3.70;;;;;;;20.08;43.71;100721.28;6172876;23;20174;-68
2023/06/02 22:29:22;;;;;;;9.53;3.40;;;;;;;20.07;43.67;100721.47;6174026;23;20187;-66
2023/06/02 22:31:50;;;;;;;10.03;3.17;;;;;;;20.07;43.61;100725.00;6173464;23;20295;-67
2023/06/02 22:34:18;;;;;;;9.33;3.13;;;;;;;19.99;43.99;100714.41;6173875;23;20192;-67
2023/06/02 22:36:46;;;;;;;9.23;3.60;;;;;;;19.91;44.16;100720.00;6173028;23;20265;-67
2023/06/02 22:39:15;;;;;;;9.27;3.50;;;;;;;19.88;44.32;100720.38;6173550;23;20220;-67
2023/06/02 22:41:43;;;;;;;12.37;4.03;;;;;;;19.79;44.33;100722.44;6172861;23;20207;-68
2023/06/02 22:44:11;;;;;;;8.63;3.67;;;;;;;19.62;44.72;100715.75;6174763;23;20243;-69
2023/06/02 22:46:41;;;;;;;8.33;3.17;;;;;;;19.54;45.25;100718.63;6172464;23;20185;-66
2023/06/02 22:49:09;;;;;;;9.23;3.80;;;;;;;19.52;44.90;100716.16;6173483;23;20925;-67
2023/06/02 22:51:36;;;;;;;8.70;3.47;;;;;;;19.63;45.00;100721.97;6173771;23;20236;-67
2023/06/02 22:54:04;;;;;;;12.00;3.70;;;;;;;19.67;44.54;100718.69;6174151;23;20181;-67
2023/06/02 22:56:33;;;;;;;7.57;2.80;;;;;;;19.68;44.53;100714.13;6172964;23;20184;-68
2023/06/02 22:59:01;;;;;;;10.67;3.00;;;;;;;19.69;44.73;100722.00;6173587;23;20220;-68
2023/06/02 23:01:29;;;;;;;8.40;3.13;;;;;;;19.63;45.06;100714.72;6173923;23;20199;-66
2023/06/02 23:03:57;;;;;;;8.37;3.30;;;;;;;19.61;45.38;100714.13;6173135;23;20558;-67
2023/06/02 23:06:25;;;;;;;7.90;2.83;;;;;;;19.58;44.90;100717.19;6172546;23;20875;-68
2023/06/02 23:08:52;;;;;;;9.03;3.43;;;;;;;19.59;45.19;100718.84;6172549;23;20180;-68
2023/06/02 23:11:20;;;;;;;11.23;3.30;;;;;;;19.60;45.04;100717.84;6170141;23;20736;-67
2023/06/02 23:13:49;;;;;;;11.33;3.17;;;;;;;19.61;44.94;100716.81;6169667;23;20194;-67
2023/06/02 23:16:17;;;;;;;8.83;3.47;;;;;;;19.61;44.83;100713.28;6172838;23;20185;-68
2023/06/02 23:18:45;;;;;;;11.63;3.80;;;;;;;19.63;44.77;100717.41;6172960;23;20268;-68
2023/06/02 23:21:12;;;;;;;11.13;3.50;;;;;;;19.59;45.05;100721.53;6170392;23;20189;-67
2023/06/02 23:23:40;;;;;;;7.23;3.27;;;;;;;19.58;44.65;100717.19;6196935;23;20286;-67
2023/06/02 23:26:08;;;;;;;8.73;3.03;;;;;;;19.57;44.87;100707.47;6200284;23;20217;-66
2023/06/02 23:28:37;;;;;;;10.80;3.40;;;;;;;19.58;44.81;100706.44;6204071;23;20283;-68
2023/06/02 23:31:06;;;;;;;9.87;2.53;;;;;;;19.59;44.74;100709.97;6203259;23;20319;-65
2023/06/02 23:33:34;;;;;;;10.07;3.40;;;;;;;19.54;45.07;100702.47;6201838;23;20561;-69
2023/06/02 23:36:02;;;;;;;7.80;2.87;;;;;;;19.53;45.08;100700.81;6202706;23;20190;-68
2023/06/02 23:38:30;;;;;;;9.70;2.77;;;;;;;19.52;44.74;100704.56;6201276;23;20184;-67
2023/06/02 23:40:57;;;;;;;12.50;3.33;;;;;;;19.53;45.07;100703.50;6201628;23;20263;-66
2023/06/02 23:43:25;;;;;;;8.73;3.07;;;;;;;19.51;44.68;100703.72;6200660;23;20184;-69
2023/06/02 23:45:53;;;;;;;8.80;2.53;;;;;;;19.47;45.00;100706.97;6198634;23;20187;-67
2023/06/02 23:48:22;;;;;;;9.67;3.20;;;;;;;19.39;45.05;100701.75;6202490;23;20250;-66
2023/06/02 23:50:50;;;;;;;6.13;2.90;;;;;;;19.39;45.18;100704.47;6201118;23;20706;-67
2023/06/02 23:53:17;;;;;;;10.67;2.57;;;;;;;19.38;45.20;100700.09;6200896;23;20247;-68
2023/06/02 23:55:45;;;;;;;10.93;2.40;;;;;;;19.39;45.16;100696.38;6200012;23;20230;-66
2023/06/02 23:58:13;;;;;;;10.53;2.63;;;;;;;19.42;44.59;100693.31;6201802;23;20824;-67
